createdAt,value
2023-01-29T00:00:02.907Z,103040
2023-01-29T00:05:13.035Z,103030
2023-01-29T00:10:00.761Z,103040
2023-01-29T00:15:00.696Z,103040
2023-01-29T00:20:00.724Z,103030
2023-01-29T00:25:00.692Z,103020
2023-01-29T00:30:00.700Z,103010
2023-01-29T00:35:00.763Z,103000
2023-01-29T00:40:00.728Z,102990
2023-01-29T00:45:00.819Z,102980
2023-01-29T00:50:04.602Z,102990
2023-01-29T00:55:03.339Z,102990
2023-01-29T01:00:02.377Z,103000
2023-01-29T01:05:00.860Z,103000
2023-01-29T01:10:00.722Z,102990
2023-01-29T01:15:00.718Z,102990
2023-01-29T01:20:01.098Z,102980
2023-01-29T01:25:00.696Z,102980
2023-01-29T01:30:00.715Z,102980
2023-01-29T01:35:00.749Z,102980
2023-01-29T01:40:00.712Z,102980
2023-01-29T01:45:04.363Z,102990
2023-01-29T01:50:06.061Z,102990
2023-01-29T01:55:01.309Z,102990
2023-01-29T02:00:12.844Z,102990
2023-01-29T02:05:01.238Z,103000
2023-01-29T02:10:14.809Z,103010
2023-01-29T02:15:01.076Z,103000
2023-01-29T02:20:14.164Z,102990
2023-01-29T02:25:20.572Z,103000
2023-01-29T02:30:04.327Z,102990
2023-01-29T02:35:14.749Z,102980
2023-01-29T02:40:16.677Z,102980
2023-01-29T02:45:14.697Z,102980
2023-01-29T02:50:15.857Z,102980
2023-01-29T02:55:10.753Z,102980
2023-01-29T03:00:12.533Z,102990
2023-01-29T03:05:05.829Z,102980
2023-01-29T03:10:03.656Z,102980
2023-01-29T03:15:12.362Z,102970
2023-01-29T03:20:05.797Z,102980
2023-01-29T03:25:03.843Z,102970
2023-01-29T03:30:03.584Z,102970
2023-01-29T03:35:04.287Z,102950
2023-01-29T03:40:02.648Z,102950
2023-01-29T03:45:14.342Z,102940
2023-01-29T03:50:10.296Z,102930
2023-01-29T03:55:14.258Z,102930
2023-01-29T04:00:11.037Z,102930
2023-01-29T04:05:07.061Z,102930
2023-01-29T04:10:06.915Z,102930
2023-01-29T04:15:01.173Z,102940
2023-01-29T04:20:01.239Z,102930
2023-01-29T04:25:06.185Z,102910
2023-01-29T04:30:16.552Z,102900
2023-01-29T04:35:14.431Z,102900
2023-01-29T04:40:16.705Z,102890
2023-01-29T04:45:06.959Z,102890
2023-01-29T04:50:10.663Z,102880
2023-01-29T04:55:20.595Z,102880
2023-01-29T05:00:10.898Z,102880
2023-01-29T05:05:02.457Z,102880
2023-01-29T05:10:02.024Z,102880
2023-01-29T05:15:02.801Z,102870
2023-01-29T05:20:00.757Z,102870
2023-01-29T05:25:00.705Z,102850
2023-01-29T05:30:00.745Z,102860
2023-01-29T05:35:00.927Z,102860
2023-01-29T05:40:00.696Z,102880
2023-01-29T05:45:00.794Z,102880
2023-01-29T05:50:00.705Z,102880
2023-01-29T05:55:00.853Z,102880
2023-01-29T06:00:01.466Z,102890
2023-01-29T06:05:00.696Z,102890
2023-01-29T06:10:01.085Z,102890
2023-01-29T06:15:00.724Z,102860
2023-01-29T06:20:01.124Z,102860
2023-01-29T06:25:00.690Z,102850
2023-01-29T06:30:00.786Z,102850
2023-01-29T06:35:00.692Z,102850
2023-01-29T06:40:01.258Z,102840
2023-01-29T06:45:00.676Z,102840
2023-01-29T06:50:00.717Z,102840
2023-01-29T06:55:01.180Z,102840
2023-01-29T07:00:02.640Z,102840
2023-01-29T07:05:00.704Z,102860
2023-01-29T07:10:00.695Z,102850
2023-01-29T07:15:00.751Z,102840
2023-01-29T07:20:00.756Z,102840
2023-01-29T07:25:00.746Z,102840
2023-01-29T07:30:00.708Z,102830
2023-01-29T07:35:00.687Z,102830
2023-01-29T07:40:00.968Z,102830
2023-01-29T07:45:00.805Z,102830
2023-01-29T07:50:00.903Z,102820
2023-01-29T07:55:00.821Z,102840
2023-01-29T08:00:01.198Z,102830
2023-01-29T08:05:00.692Z,102830
2023-01-29T08:10:00.804Z,102810
2023-01-29T08:15:00.772Z,102800
2023-01-29T08:20:00.795Z,102800
2023-01-29T08:25:08.271Z,102800
2023-01-29T08:30:00.941Z,102790
2023-01-29T08:35:00.745Z,102790
2023-01-29T08:40:00.760Z,102800
2023-01-29T08:45:00.722Z,102800
2023-01-29T08:50:00.727Z,102790
2023-01-29T08:55:00.672Z,102780
2023-01-29T09:00:03.941Z,102770
2023-01-29T09:05:00.712Z,102760
2023-01-29T09:10:01.104Z,102760
2023-01-29T09:15:00.743Z,102760
2023-01-29T09:20:00.728Z,102760
2023-01-29T09:25:00.693Z,102760
2023-01-29T09:30:00.763Z,102770
2023-01-29T09:35:00.722Z,102780
2023-01-29T09:40:00.708Z,102770
2023-01-29T09:45:04.722Z,102770
2023-01-29T09:50:05.599Z,102770
2023-01-29T09:55:10.574Z,102770
2023-01-29T10:00:01.443Z,102760
2023-01-29T10:05:13.714Z,102750
2023-01-29T10:10:15.655Z,102740
2023-01-29T10:15:11.655Z,102730
2023-01-29T10:20:20.424Z,102730
2023-01-29T10:25:04.477Z,102740
2023-01-29T10:30:06.151Z,102750
2023-01-29T10:35:11.789Z,102750
2023-01-29T10:40:00.747Z,102750
2023-01-29T10:45:20.862Z,102740
2023-01-29T10:50:16.093Z,102730
2023-01-29T10:55:10.633Z,102720
2023-01-29T11:00:08.451Z,102710
2023-01-29T11:05:00.726Z,102690
2023-01-29T11:10:10.407Z,102690
2023-01-29T11:15:10.647Z,102670
2023-01-29T11:20:00.763Z,102670
2023-01-29T11:25:15.106Z,102650
2023-01-29T11:30:01.034Z,102660
2023-01-29T11:35:13.894Z,102650
2023-01-29T11:40:11.408Z,102650
2023-01-29T11:45:00.688Z,102650
2023-01-29T11:50:01.975Z,102650
2023-01-29T11:55:16.667Z,102630
2023-01-29T12:00:05.984Z,102620
2023-01-29T12:05:04.687Z,102620
2023-01-29T12:10:00.985Z,102610
2023-01-29T12:15:05.284Z,102600
2023-01-29T12:20:18.469Z,102600
2023-01-29T12:25:18.971Z,102590
2023-01-29T12:30:11.682Z,102580
2023-01-29T12:40:00.945Z,102560
2023-01-29T12:45:02.762Z,102550
2023-01-29T12:50:06.931Z,102540
2023-01-29T12:55:07.892Z,102530
2023-01-29T13:00:05.255Z,102530
2023-01-29T13:05:11.582Z,102520
2023-01-29T13:10:10.283Z,102490
2023-01-29T13:15:05.057Z,102490
2023-01-29T13:20:20.519Z,102470
2023-01-29T13:25:05.133Z,102470
2023-01-29T13:30:01.107Z,102450
2023-01-29T13:35:05.507Z,102450
2023-01-29T13:40:02.992Z,102430
2023-01-29T13:45:04.659Z,102410
2023-01-29T13:50:19.986Z,102400
2023-01-29T13:55:07.290Z,102400
2023-01-29T14:00:01.092Z,102400
2023-01-29T14:05:20.522Z,102400
2023-01-29T14:10:13.801Z,102400
2023-01-29T14:15:12.962Z,102390
2023-01-29T14:20:07.012Z,102390
2023-01-29T14:25:03.482Z,102390
2023-01-29T14:30:05.606Z,102390
2023-01-29T14:35:02.924Z,102390
2023-01-29T14:40:10.576Z,102380
2023-01-29T14:45:20.587Z,102380
2023-01-29T14:50:11.651Z,102380
2023-01-29T14:55:05.818Z,102370
2023-01-29T15:00:03.792Z,102370
2023-01-29T15:05:02.434Z,102350
2023-01-29T15:10:22.275Z,102360
2023-01-29T15:15:20.523Z,102350
2023-01-29T15:20:00.791Z,102350
2023-01-29T15:25:04.578Z,102340
2023-01-29T15:30:04.584Z,102330
2023-01-29T15:35:06.585Z,102320
2023-01-29T15:40:01.152Z,102320
2023-01-29T15:45:01.973Z,102310
2023-01-29T15:50:01.008Z,102310
2023-01-29T15:55:04.665Z,102300
2023-01-29T16:00:01.655Z,102300
2023-01-29T16:05:01.453Z,102300
2023-01-29T16:10:01.750Z,102300
2023-01-29T16:15:03.197Z,102300
2023-01-29T16:20:03.336Z,102290
2023-01-29T16:25:02.987Z,102300
2023-01-29T16:30:00.951Z,102300
2023-01-29T16:35:00.824Z,102300
2023-01-29T16:40:14.688Z,102300
2023-01-29T16:45:02.469Z,102300
2023-01-29T16:50:12.700Z,102300
2023-01-29T16:55:10.573Z,102280
2023-01-29T17:00:06.165Z,102270
2023-01-29T17:05:04.632Z,102280
2023-01-29T17:10:03.570Z,102260
2023-01-29T17:15:04.427Z,102260
2023-01-29T17:20:11.354Z,102270
2023-01-29T17:25:00.632Z,102270
2023-01-29T17:30:00.698Z,102260
2023-01-29T17:35:00.757Z,102260
2023-01-29T17:40:00.634Z,102260
2023-01-29T17:45:00.614Z,102250
2023-01-29T17:50:00.657Z,102240
2023-01-29T17:55:00.627Z,102240
2023-01-29T18:00:15.513Z,102220
2023-01-29T18:05:00.629Z,102220
2023-01-29T18:10:00.632Z,102220
2023-01-29T18:15:00.636Z,102210
2023-01-29T18:20:01.161Z,102210
2023-01-29T18:25:00.632Z,102190
2023-01-29T18:30:00.698Z,102180
2023-01-29T18:35:00.715Z,102180
2023-01-29T18:40:00.773Z,102170
2023-01-29T18:45:01.161Z,102160
2023-01-29T18:50:00.710Z,102170
2023-01-29T18:55:00.647Z,102150
2023-01-29T19:00:01.026Z,102150
2023-01-29T19:05:00.986Z,102140
2023-01-29T19:10:00.635Z,102130
2023-01-29T19:15:00.896Z,102120
2023-01-29T19:20:00.802Z,102100
2023-01-29T19:25:00.663Z,102100
2023-01-29T19:30:00.852Z,102080
2023-01-29T19:35:00.880Z,102070
2023-01-29T19:40:00.653Z,102060
2023-01-29T19:45:00.664Z,102060
2023-01-29T19:50:00.629Z,102070
2023-01-29T19:55:01.986Z,102070
2023-01-29T20:00:02.990Z,102060
2023-01-29T20:05:00.630Z,102060
2023-01-29T20:10:00.644Z,102030
2023-01-29T20:15:00.641Z,102050
2023-01-29T20:20:00.667Z,102060
2023-01-29T20:25:00.633Z,102050
2023-01-29T20:30:00.609Z,102030
2023-01-29T20:35:00.813Z,102030
2023-01-29T20:40:00.661Z,102040
2023-01-29T20:45:00.679Z,102030
2023-01-29T20:50:00.659Z,102030
2023-01-29T20:55:01.203Z,102030
2023-01-29T21:00:02.347Z,102060
2023-01-29T21:05:00.660Z,102030
2023-01-29T21:10:00.651Z,102040
2023-01-29T21:15:00.697Z,102020
2023-01-29T21:20:00.653Z,102020
2023-01-29T21:25:00.646Z,102010
2023-01-29T21:30:00.681Z,102020
2023-01-29T21:35:00.647Z,102020
2023-01-29T21:40:00.624Z,102030
2023-01-29T21:45:00.669Z,102020
2023-01-29T21:50:00.631Z,102010
2023-01-29T21:55:00.897Z,102000
2023-01-29T22:00:01.934Z,102000
2023-01-29T22:05:16.581Z,101950
2023-01-29T22:10:00.714Z,101920
2023-01-29T22:15:00.639Z,101910
2023-01-29T22:20:01.033Z,101890
2023-01-29T22:25:00.648Z,101880
2023-01-29T22:30:00.697Z,101920
2023-01-29T22:35:00.685Z,101890
2023-01-29T22:40:00.848Z,101900
2023-01-29T22:45:00.644Z,101900
2023-01-29T22:50:00.627Z,101900
2023-01-29T22:55:00.637Z,101870
2023-01-29T23:00:02.827Z,101870
2023-01-29T23:05:01.043Z,101850
2023-01-29T23:10:00.726Z,101840
2023-01-29T23:15:00.637Z,101840
2023-01-29T23:20:00.668Z,101860
2023-01-29T23:25:00.622Z,101830
2023-01-29T23:30:00.858Z,101810
2023-01-29T23:35:00.657Z,101810
2023-01-29T23:40:00.660Z,101810
2023-01-29T23:45:00.657Z,101790
2023-01-29T23:50:00.662Z,101780
2023-01-29T23:55:00.628Z,101770
